createdAt,value
2023-11-15T00:01:52.953Z,83.41
2023-11-15T00:04:50.329Z,83.57
2023-11-15T00:07:47.963Z,83.65
2023-11-15T00:10:45.365Z,83.59
2023-11-15T00:13:43.024Z,83.60
2023-11-15T00:16:40.457Z,83.57
2023-11-15T00:19:38.098Z,83.72
2023-11-15T00:22:36.532Z,83.26
2023-11-15T00:25:34.568Z,83.03
2023-11-15T00:28:32.010Z,83.28
2023-11-15T00:31:30.292Z,83.15
2023-11-15T00:34:27.719Z,82.99
2023-11-15T00:37:25.419Z,82.61
2023-11-15T00:40:23.172Z,82.69
2023-11-15T00:43:21.084Z,82.62
2023-11-15T00:46:18.741Z,82.39
2023-11-15T00:49:16.485Z,82.03
2023-11-15T00:52:15.383Z,81.76
2023-11-15T00:55:13.497Z,81.45
2023-11-15T00:58:11.540Z,80.93
2023-11-15T01:01:12.699Z,80.72
2023-11-15T01:04:10.446Z,80.28
2023-11-15T01:07:08.627Z,79.74
2023-11-15T01:10:07.347Z,79.18
2023-11-15T01:13:05.383Z,78.99
2023-11-15T01:16:03.177Z,78.69
2023-11-15T01:19:00.799Z,78.46
2023-11-15T01:21:58.786Z,78.06
2023-11-15T01:24:56.593Z,77.88
2023-11-15T01:27:54.086Z,77.45
2023-11-15T01:30:51.816Z,77.43
2023-11-15T01:33:49.206Z,77.23
2023-11-15T01:36:46.996Z,77.06
2023-11-15T01:39:44.408Z,76.93
2023-11-15T01:42:41.982Z,76.80
2023-11-15T01:45:39.367Z,76.51
2023-11-15T01:48:37.898Z,76.28
2023-11-15T01:51:35.292Z,76.07
2023-11-15T01:54:33.003Z,75.55
2023-11-15T01:57:30.791Z,75.62
2023-11-15T02:00:28.653Z,75.28
2023-11-15T02:03:26.133Z,75.15
2023-11-15T02:06:24.083Z,74.85
2023-11-15T02:09:21.972Z,74.53
2023-11-15T02:12:19.410Z,74.33
2023-11-15T02:15:17.693Z,74.36
2023-11-15T02:18:15.377Z,74.04
2023-11-15T02:21:12.794Z,73.99
2023-11-15T02:24:10.475Z,73.83
2023-11-15T02:27:08.994Z,73.70
2023-11-15T02:30:06.762Z,73.62
2023-11-15T02:33:04.224Z,73.27
2023-11-15T02:36:02.101Z,73.21
2023-11-15T02:38:59.518Z,73.06
2023-11-15T02:41:57.141Z,73.13
2023-11-15T02:44:54.768Z,72.73
2023-11-15T02:47:52.343Z,72.37
2023-11-15T02:50:50.193Z,72.37
2023-11-15T02:53:47.874Z,72.00
2023-11-15T02:56:45.719Z,71.68
2023-11-15T02:59:43.168Z,71.56
2023-11-15T03:02:41.086Z,71.22
2023-11-15T03:05:39.184Z,71.11
2023-11-15T03:08:37.005Z,70.81
2023-11-15T03:11:34.540Z,70.55
2023-11-15T03:14:32.368Z,70.19
2023-11-15T03:17:29.919Z,69.97
2023-11-15T03:20:27.782Z,69.87
2023-11-15T03:23:26.016Z,69.43
2023-11-15T03:26:23.644Z,69.40
2023-11-15T03:29:21.037Z,69.51
2023-11-15T03:32:18.710Z,69.40
2023-11-15T03:35:16.292Z,69.26
2023-11-15T03:38:14.037Z,69.66
2023-11-15T03:41:12.083Z,69.63
2023-11-15T03:44:09.741Z,69.55
2023-11-15T03:47:07.129Z,69.65
2023-11-15T03:50:05.810Z,69.82
2023-11-15T03:53:04.189Z,69.76
2023-11-15T03:56:01.560Z,69.96
2023-11-15T03:58:59.536Z,69.91
2023-11-15T04:01:57.984Z,70.06
2023-11-15T04:04:56.025Z,70.09
2023-11-15T04:07:53.652Z,69.76
2023-11-15T04:10:51.648Z,69.85
2023-11-15T04:13:49.328Z,69.72
2023-11-15T04:16:47.064Z,69.49
2023-11-15T04:19:44.451Z,69.48
2023-11-15T04:22:42.235Z,69.46
2023-11-15T04:25:41.103Z,69.42
2023-11-15T04:28:38.751Z,69.38
2023-11-15T04:31:36.767Z,68.99
2023-11-15T04:34:34.626Z,68.98
2023-11-15T04:37:32.052Z,68.96
2023-11-15T04:40:29.817Z,69.01
2023-11-15T04:43:27.597Z,69.13
2023-11-15T04:46:25.020Z,69.09
2023-11-15T04:49:22.692Z,68.94
2023-11-15T04:52:20.099Z,68.93
2023-11-15T04:55:17.842Z,68.87
2023-11-15T04:58:16.247Z,68.79
2023-11-15T05:01:15.335Z,68.70
2023-11-15T05:04:12.878Z,68.88
2023-11-15T05:07:12.397Z,68.75
2023-11-15T05:10:11.264Z,68.78
2023-11-15T05:13:09.354Z,68.68
2023-11-15T05:16:06.969Z,68.52
2023-11-15T05:19:04.752Z,68.50
2023-11-15T05:22:03.303Z,68.66
2023-11-15T05:25:00.761Z,68.71
2023-11-15T05:27:58.437Z,68.75
2023-11-15T05:30:56.056Z,68.56
2023-11-15T05:33:53.615Z,68.55
2023-11-15T05:36:51.078Z,68.58
2023-11-15T05:39:48.853Z,68.64
2023-11-15T05:42:46.438Z,68.68
2023-11-15T05:45:44.202Z,68.79
2023-11-15T05:48:41.606Z,68.78
2023-11-15T05:51:41.757Z,68.73
2023-11-15T05:54:39.201Z,68.82
2023-11-15T05:57:36.919Z,68.81
2023-11-15T06:00:34.389Z,68.93
2023-11-15T06:03:32.398Z,68.76
2023-11-15T06:06:29.893Z,68.89
2023-11-15T06:09:27.726Z,68.90
2023-11-15T06:12:25.113Z,68.91
2023-11-15T06:15:22.670Z,68.88
2023-11-15T06:18:20.379Z,68.95
2023-11-15T06:21:19.541Z,69.06
2023-11-15T06:24:17.077Z,69.16
2023-11-15T06:27:14.614Z,69.24
2023-11-15T06:30:13.887Z,69.37
2023-11-15T06:33:11.568Z,69.43
2023-11-15T06:36:09.751Z,69.51
2023-11-15T06:39:10.094Z,69.63
2023-11-15T06:42:09.371Z,69.61
2023-11-15T06:45:08.299Z,69.65
2023-11-15T06:48:08.332Z,69.67
2023-11-15T06:51:06.323Z,69.58
2023-11-15T06:54:04.109Z,69.55
2023-11-15T06:57:01.757Z,69.52
2023-11-15T06:59:59.573Z,69.55
2023-11-15T07:02:57.597Z,69.69
2023-11-15T07:05:55.143Z,69.52
2023-11-15T07:08:52.896Z,69.72
2023-11-15T07:11:50.658Z,69.73
2023-11-15T07:14:49.451Z,69.74
2023-11-15T07:17:47.591Z,69.71
2023-11-15T07:20:45.939Z,69.81
2023-11-15T07:23:43.745Z,69.80
2023-11-15T07:26:41.165Z,69.91
2023-11-15T07:29:39.514Z,69.92
2023-11-15T07:32:37.312Z,69.93
2023-11-15T07:35:37.680Z,70.34
2023-11-15T07:38:36.307Z,70.33
2023-11-15T07:41:36.096Z,70.35
2023-11-15T07:44:33.961Z,70.31
2023-11-15T07:47:35.751Z,70.31
2023-11-15T07:50:33.662Z,70.27
2023-11-15T07:53:33.508Z,70.32
2023-11-15T07:56:31.279Z,70.33
2023-11-15T07:59:28.671Z,70.06
2023-11-15T08:02:26.384Z,69.99
2023-11-15T08:05:23.842Z,69.96
2023-11-15T08:08:21.535Z,69.89
2023-11-15T08:11:18.921Z,69.97
2023-11-15T08:14:16.711Z,70.04
2023-11-15T08:17:14.231Z,69.91
2023-11-15T08:20:11.873Z,69.90
2023-11-15T08:23:10.539Z,69.94
2023-11-15T08:26:08.942Z,70.10
2023-11-15T08:29:06.676Z,70.18
2023-11-15T08:32:04.391Z,70.07
2023-11-15T08:35:02.015Z,70.18
2023-11-15T08:37:59.671Z,70.61
2023-11-15T08:40:57.152Z,71.22
2023-11-15T08:43:54.839Z,71.77
2023-11-15T08:46:52.798Z,71.67
2023-11-15T08:49:51.980Z,71.63
2023-11-15T08:52:49.642Z,71.53
2023-11-15T08:55:47.317Z,71.68
2023-11-15T08:58:44.761Z,71.27
2023-11-15T09:01:42.998Z,71.27
2023-11-15T09:04:41.339Z,71.04
2023-11-15T09:07:40.502Z,70.29
2023-11-15T09:10:37.885Z,70.41
2023-11-15T09:13:35.437Z,70.09
2023-11-15T09:16:32.947Z,69.59
2023-11-15T09:19:30.682Z,69.01
2023-11-15T09:22:31.241Z,68.42
2023-11-15T09:25:32.366Z,68.08
2023-11-15T09:28:30.657Z,67.57
2023-11-15T09:31:28.091Z,67.35
2023-11-15T09:34:27.013Z,66.59
2023-11-15T09:37:24.564Z,66.03
2023-11-15T09:40:22.459Z,66.12
2023-11-15T09:43:21.227Z,65.72
2023-11-15T09:46:19.240Z,65.78
2023-11-15T09:49:17.455Z,65.35
2023-11-15T09:52:16.688Z,64.68
2023-11-15T09:55:14.277Z,64.53
2023-11-15T09:58:13.341Z,64.35
2023-11-15T10:01:11.045Z,63.89
2023-11-15T10:04:08.985Z,63.99
2023-11-15T10:07:08.627Z,63.48
2023-11-15T10:10:07.179Z,63.77
2023-11-15T10:13:05.417Z,63.65
2023-11-15T10:16:03.966Z,63.37
2023-11-15T10:19:02.035Z,63.31
2023-11-15T10:21:59.633Z,63.55
2023-11-15T10:24:57.337Z,63.41
2023-11-15T10:27:54.879Z,63.19
2023-11-15T10:30:52.638Z,63.30
2023-11-15T10:33:50.882Z,63.56
2023-11-15T10:36:50.122Z,63.30
2023-11-15T10:39:49.541Z,63.48
2023-11-15T10:42:51.793Z,63.56
2023-11-15T10:45:51.635Z,63.52
2023-11-15T10:48:51.099Z,62.75
2023-11-15T10:51:50.223Z,62.60
2023-11-15T10:54:47.874Z,62.81
2023-11-15T10:57:47.850Z,63.27
2023-11-15T11:00:47.227Z,63.20
2023-11-15T11:03:45.779Z,63.17
2023-11-15T11:06:50.279Z,63.37
2023-11-15T11:09:47.849Z,62.95
2023-11-15T11:12:46.213Z,63.05
2023-11-15T11:15:43.885Z,62.89
2023-11-15T11:18:41.521Z,62.67
2023-11-15T11:21:40.969Z,62.93
2023-11-15T11:24:39.832Z,62.89
2023-11-15T11:27:38.323Z,63.00
2023-11-15T11:30:35.998Z,62.93
2023-11-15T11:33:34.108Z,62.83
2023-11-15T11:36:31.657Z,63.14
2023-11-15T11:39:30.691Z,63.08
2023-11-15T11:42:28.356Z,62.74
2023-11-15T11:45:26.121Z,62.66
2023-11-15T11:48:23.765Z,62.86
2023-11-15T11:51:21.676Z,62.84
2023-11-15T11:54:20.256Z,62.79
2023-11-15T11:57:17.744Z,62.45
2023-11-15T12:00:19.597Z,62.59
2023-11-15T12:03:19.462Z,62.28
2023-11-15T12:06:19.932Z,62.39
2023-11-15T12:09:17.789Z,62.55
2023-11-15T12:12:15.613Z,62.62
2023-11-15T12:15:14.815Z,62.55
2023-11-15T12:18:12.427Z,62.58
2023-11-15T12:21:11.316Z,62.77
2023-11-15T12:24:11.433Z,62.76
2023-11-15T12:27:09.363Z,62.75
2023-11-15T12:30:08.577Z,62.31
2023-11-15T12:33:06.329Z,62.42
2023-11-15T12:36:04.218Z,61.78
2023-11-15T12:39:02.230Z,61.81
2023-11-15T12:42:02.697Z,61.92
2023-11-15T12:45:01.162Z,62.03
2023-11-15T12:47:59.012Z,62.10
2023-11-15T12:50:57.815Z,61.84
2023-11-15T12:53:55.848Z,62.10
2023-11-15T12:56:56.627Z,61.97
2023-11-15T12:59:54.466Z,61.64
2023-11-15T13:02:52.262Z,61.79
2023-11-15T13:05:50.328Z,61.81
2023-11-15T13:08:50.721Z,61.63
2023-11-15T13:11:50.556Z,61.53
2023-11-15T13:14:47.997Z,61.74
2023-11-15T13:17:45.946Z,61.39
2023-11-15T13:20:43.954Z,61.03
2023-11-15T13:23:42.161Z,61.09
2023-11-15T13:26:41.748Z,60.96
2023-11-15T13:29:40.546Z,60.94
2023-11-15T13:32:38.026Z,60.80
2023-11-15T13:35:35.955Z,60.60
2023-11-15T13:38:34.323Z,60.99
2023-11-15T13:41:32.299Z,61.06
2023-11-15T13:44:29.710Z,60.89
2023-11-15T13:47:29.619Z,60.76
2023-11-15T13:50:27.145Z,61.09
2023-11-15T13:53:25.084Z,60.91
2023-11-15T13:56:22.968Z,61.18
2023-11-15T13:59:21.971Z,60.94
2023-11-15T14:02:19.523Z,60.97
2023-11-15T14:05:19.332Z,60.64
2023-11-15T14:08:19.424Z,60.64
2023-11-15T14:11:18.180Z,60.80
2023-11-15T14:14:15.657Z,60.91
2023-11-15T14:17:13.604Z,60.68
2023-11-15T14:20:12.603Z,60.68
2023-11-15T14:23:14.123Z,60.67
2023-11-15T14:26:15.561Z,60.60
2023-11-15T14:29:14.244Z,60.66
2023-11-15T14:32:17.616Z,60.90
2023-11-15T14:35:15.037Z,60.63
2023-11-15T14:38:13.764Z,60.78
2023-11-15T14:41:11.629Z,60.72
2023-11-15T14:44:09.518Z,60.72
2023-11-15T14:47:10.256Z,60.66
2023-11-15T14:50:11.622Z,60.84
2023-11-15T14:53:20.163Z,60.77
2023-11-15T14:56:18.112Z,61.03
2023-11-15T14:59:17.161Z,61.07
2023-11-15T15:02:15.133Z,61.04
2023-11-15T15:05:13.298Z,61.25
2023-11-15T15:08:13.403Z,61.51
2023-11-15T15:11:10.883Z,61.74
2023-11-15T15:14:08.789Z,62.01
2023-11-15T15:17:14.645Z,62.20
2023-11-15T15:20:20.365Z,62.32
2023-11-15T15:23:18.695Z,62.55
2023-11-15T15:26:21.021Z,62.67
2023-11-15T15:29:27.177Z,62.77
2023-11-15T15:32:25.362Z,62.88
2023-11-15T15:35:23.268Z,62.95
2023-11-15T15:38:20.754Z,63.06
2023-11-15T15:41:19.251Z,63.15
2023-11-15T15:44:16.643Z,63.31
2023-11-15T15:47:14.425Z,63.44
2023-11-15T15:50:12.256Z,63.68
2023-11-15T15:53:10.977Z,63.82
2023-11-15T15:56:08.848Z,63.99
2023-11-15T15:59:06.237Z,64.08
2023-11-15T16:02:04.139Z,64.10
2023-11-15T16:05:01.545Z,64.12
2023-11-15T16:07:59.410Z,64.04
2023-11-15T16:10:57.698Z,64.18
2023-11-15T16:13:55.161Z,64.13
2023-11-15T16:16:53.030Z,64.29
2023-11-15T16:19:50.915Z,64.30
2023-11-15T16:22:48.382Z,64.27
2023-11-15T16:25:46.532Z,64.20
2023-11-15T16:28:43.994Z,64.18
2023-11-15T16:31:42.180Z,63.99
2023-11-15T16:34:39.625Z,64.09
2023-11-15T16:37:39.995Z,64.15
2023-11-15T16:40:40.386Z,64.15
2023-11-15T16:43:38.258Z,64.21
2023-11-15T16:46:35.776Z,64.24
2023-11-15T16:49:33.688Z,64.20
2023-11-15T16:52:33.084Z,64.30
2023-11-15T16:55:31.561Z,64.19
2023-11-15T16:58:28.926Z,64.31
2023-11-15T17:01:27.248Z,64.32
2023-11-15T17:04:24.721Z,64.25
2023-11-15T17:07:22.999Z,64.36
2023-11-15T17:10:20.579Z,64.37
2023-11-15T17:13:19.279Z,64.61
2023-11-15T17:16:17.360Z,64.84
2023-11-15T17:19:16.059Z,65.13
2023-11-15T17:22:15.079Z,65.64
2023-11-15T17:25:19.654Z,66.00
2023-11-15T17:28:19.696Z,66.30
2023-11-15T17:31:20.266Z,66.52
2023-11-15T17:34:19.204Z,66.81
2023-11-15T17:37:17.130Z,66.47
2023-11-15T17:40:16.527Z,66.90
2023-11-15T17:43:15.343Z,67.15
2023-11-15T17:46:13.995Z,67.05
2023-11-15T17:49:12.335Z,67.39
2023-11-15T17:52:11.255Z,67.52
2023-11-15T17:55:09.406Z,67.72
2023-11-15T17:58:08.763Z,67.92
2023-11-15T18:01:07.156Z,68.05
2023-11-15T18:04:05.386Z,68.31
2023-11-15T18:07:03.043Z,68.39
2023-11-15T18:10:00.943Z,68.60
2023-11-15T18:12:58.723Z,68.74
2023-11-15T18:15:56.958Z,68.77
2023-11-15T18:18:56.309Z,68.89
2023-11-15T18:21:54.355Z,68.99
2023-11-15T18:24:52.393Z,69.21
2023-11-15T18:27:50.523Z,69.20
2023-11-15T18:30:48.290Z,69.28
2023-11-15T18:33:48.612Z,69.24
2023-11-15T18:36:48.817Z,69.28
2023-11-15T18:39:48.562Z,69.45
2023-11-15T18:42:47.893Z,69.49
2023-11-15T18:45:47.856Z,69.64
2023-11-15T18:48:46.366Z,69.82
2023-11-15T18:51:45.037Z,69.94
2023-11-15T18:54:43.666Z,69.88
2023-11-15T18:57:43.230Z,69.86
2023-11-15T19:00:42.932Z,70.03
2023-11-15T19:03:43.117Z,70.07
2023-11-15T19:06:41.986Z,70.01
2023-11-15T19:09:45.095Z,69.91
2023-11-15T19:12:44.961Z,70.18
2023-11-15T19:15:45.363Z,70.10
2023-11-15T19:18:45.481Z,70.43
2023-11-15T19:21:45.444Z,70.65
2023-11-15T19:24:45.991Z,70.89
2023-11-15T19:27:46.833Z,71.05
2023-11-15T19:30:46.623Z,71.25
2023-11-15T19:33:46.957Z,71.44
2023-11-15T19:36:46.757Z,71.41
2023-11-15T19:39:46.591Z,71.45
2023-11-15T19:42:47.142Z,71.58
2023-11-15T19:45:47.525Z,71.69
2023-11-15T19:48:47.520Z,71.68
2023-11-15T19:51:48.449Z,71.65
2023-11-15T19:54:48.642Z,71.99
2023-11-15T19:57:49.095Z,72.09
2023-11-15T20:00:49.597Z,72.08
2023-11-15T20:03:53.613Z,72.44
2023-11-15T20:06:53.860Z,72.51
2023-11-15T20:09:55.419Z,72.48
2023-11-15T20:12:54.828Z,72.64
2023-11-15T20:15:55.879Z,72.55
2023-11-15T20:18:55.165Z,72.62
2023-11-15T20:21:55.557Z,72.42
2023-11-15T20:24:55.429Z,72.57
2023-11-15T20:27:55.460Z,72.44
2023-11-15T20:30:55.653Z,72.51
2023-11-15T20:33:55.494Z,72.46
2023-11-15T20:36:55.807Z,72.11
2023-11-15T20:39:55.261Z,72.07
2023-11-15T20:42:54.780Z,71.88
2023-11-15T20:46:05.133Z,71.81
2023-11-15T20:49:12.205Z,71.69
2023-11-15T20:52:11.869Z,71.69
2023-11-15T20:55:11.066Z,71.72
2023-11-15T20:58:08.680Z,71.86
2023-11-15T21:01:07.734Z,71.81
2023-11-15T21:04:09.139Z,71.86
2023-11-15T21:07:06.765Z,71.90
2023-11-15T21:10:05.476Z,72.05
2023-11-15T21:13:04.319Z,72.12
2023-11-15T21:16:04.500Z,72.22
2023-11-15T21:19:01.869Z,72.26
2023-11-15T21:21:59.555Z,72.20
2023-11-15T21:24:56.967Z,72.25
2023-11-15T21:27:56.029Z,72.28
2023-11-15T21:30:53.579Z,72.17
2023-11-15T21:33:51.560Z,72.02
2023-11-15T21:36:49.150Z,71.86
2023-11-15T21:39:46.606Z,71.62
2023-11-15T21:42:45.813Z,71.55
2023-11-15T21:45:43.332Z,71.49
2023-11-15T21:48:41.362Z,71.32
2023-11-15T21:51:38.832Z,71.20
2023-11-15T21:54:36.519Z,71.10
2023-11-15T21:57:34.014Z,71.01
2023-11-15T22:00:32.404Z,70.93
2023-11-15T22:03:30.164Z,70.83
2023-11-15T22:06:27.970Z,70.80
2023-11-15T22:09:25.544Z,70.71
2023-11-15T22:12:23.589Z,70.72
2023-11-15T22:15:21.409Z,70.80
2023-11-15T22:18:19.752Z,70.97
2023-11-15T22:21:17.218Z,71.02
2023-11-15T22:24:14.839Z,70.96
2023-11-15T22:27:12.252Z,71.09
2023-11-15T22:30:11.266Z,71.15
2023-11-15T22:33:08.901Z,71.09
2023-11-15T22:36:06.650Z,71.16
2023-11-15T22:39:04.178Z,71.09
2023-11-15T22:42:02.373Z,71.07
2023-11-15T22:44:59.813Z,71.05
2023-11-15T22:47:57.350Z,71.06
2023-11-15T22:50:54.848Z,71.06
2023-11-15T22:53:54.539Z,71.04
2023-11-15T22:56:52.742Z,71.06
2023-11-15T22:59:52.566Z,71.05
2023-11-15T23:02:50.750Z,71.17
2023-11-15T23:05:50.229Z,71.20
2023-11-15T23:08:47.660Z,71.31
2023-11-15T23:11:45.210Z,71.36
2023-11-15T23:14:42.597Z,71.47
2023-11-15T23:17:40.309Z,71.45
2023-11-15T23:20:41.466Z,71.47
2023-11-15T23:23:39.189Z,71.50
2023-11-15T23:26:36.961Z,71.65
2023-11-15T23:29:34.649Z,71.62
2023-11-15T23:32:32.859Z,71.71
2023-11-15T23:35:30.563Z,71.73
2023-11-15T23:38:30.547Z,71.68
2023-11-15T23:41:29.626Z,71.66
2023-11-15T23:44:28.445Z,71.69
2023-11-15T23:47:26.224Z,71.70
2023-11-15T23:50:24.284Z,71.59
2023-11-15T23:53:23.007Z,71.69
2023-11-15T23:56:20.435Z,71.73
2023-11-15T23:59:18.413Z,71.83
